This is the latest recevied weather packets stored in our database for station/object K0RGI. If no packets are shown the sender has not sent any weather packets the latest 1 day(s).
| Time | Temp. | Humidity | Pressure | Rain* | Wind** | Luminosity | Snow |
|---|---|---|---|---|---|---|---|
| 1778033623 | 21.67° C | 50% | 1013 hPa | 0 mm | 2.68 m/s, 273° | 0 W/m² | - |
| 1778033018 | 21.11° C | 50% | 1013.4 hPa | 0 mm | 2.68 m/s, 317° | 0 W/m² | - |
| 1778032413 | 21.11° C | 50% | 1013.2 hPa | 0 mm | 0.45 m/s, 257° | 0 W/m² | - |
| 1778031812 | 21.11° C | 49% | 1012.7 hPa | 0 mm | 2.24 m/s, 240° | 0 W/m² | - |
| 1778031212 | 21.11° C | 49% | 1012.5 hPa | 0 mm | 1.34 m/s, 251° | 0 W/m² | - |
| 1778030612 | 21.11° C | 49% | 1012.7 hPa | 0 mm | 0.89 m/s, 270° | 0 W/m² | - |
| 1778030011 | 21.67° C | 49% | 1012.6 hPa | 0 mm | 0.45 m/s, 280° | 0 W/m² | - |
| 1778029406 | 21.67° C | 48% | 1012.4 hPa | 0 mm | 1.34 m/s, 241° | 0 W/m² | - |
| 1778028805 | 21.67° C | 48% | 1012.3 hPa | 0 mm | 0.89 m/s, 278° | 0 W/m² | - |
| 1778028205 | 22.22° C | 48% | 1012.7 hPa | 0 mm | 0.89 m/s, 284° | 0 W/m² | - |
| 1778027603 | 22.22° C | 46% | 1012.9 hPa | 0 mm | 0.89 m/s, 264° | 0 W/m² | - |
| 1778027002 | 22.78° C | 45% | 1012.9 hPa | 0 mm | 0.45 m/s, 245° | 0 W/m² | - |
| 1778026401 | 22.78° C | 45% | 1012.6 hPa | 0 mm | 1.34 m/s, 222° | 3 W/m² | - |
| 1778025801 | 22.78° C | 45% | 1012.8 hPa | 0 mm | 0 m/s | 8 W/m² | - |
| 1778025201 | 22.78° C | 44% | 1013 hPa | 0 mm | 0 m/s | 12 W/m² | - |
| 1778024596 | 22.78° C | 43% | 1012.9 hPa | 0 mm | 2.24 m/s, 291° | 18 W/m² | - |
| 1778023996 | 23.33° C | 42% | 1012.7 hPa | 0 mm | 0.89 m/s, 238° | 24 W/m² | - |
| 1778023391 | 22.78° C | 43% | 1012.6 hPa | 0 mm | 1.34 m/s, 238° | 25 W/m² | - |
| 1778022786 | 23.33° C | 45% | 1012.5 hPa | 0 mm | 0.89 m/s, 266° | 28 W/m² | - |
| 1778022186 | 23.89° C | 45% | 1012.4 hPa | 0 mm | 0.45 m/s, 248° | 49 W/m² | - |
| 1778021586 | 23.89° C | 46% | 1012.7 hPa | 0 mm | 1.34 m/s, 255° | 47 W/m² | - |
| 1778020985 | 23.89° C | 45% | 1012.7 hPa | 0 mm | 1.34 m/s, 257° | 68 W/m² | - |
| 1778020385 | 23.89° C | 47% | 1012.5 hPa | 0 mm | 0.45 m/s, 259° | 60 W/m² | - |
| 1778019783 | 23.89° C | 47% | 1012.6 hPa | 0 mm | 0.89 m/s, 267° | 103 W/m² | - |
| 1778019182 | 23.89° C | 48% | 1012.7 hPa | 0 mm | 0.89 m/s, 250° | 89 W/m² | - |
* Rain latest hour (hover to see other rain measurements)
** Current wind speed in m/s (hover to see current wind gust speed)